sensor_id;sensor_type;location;lat;lon;timestamp;P1;durP1;ratioP1;P2;durP2;ratioP2
3463;SDS011;3551;41.578;24.706;2023-05-23T00:01:09;8.30;;;4.30;;
3463;SDS011;3551;41.578;24.706;2023-05-23T00:03:38;8.83;;;5.50;;
3463;SDS011;3551;41.578;24.706;2023-05-23T00:06:06;10.23;;;4.07;;
3463;SDS011;3551;41.578;24.706;2023-05-23T00:08:33;10.70;;;6.93;;
3463;SDS011;3551;41.578;24.706;2023-05-23T00:11:00;8.47;;;5.50;;
3463;SDS011;3551;41.578;24.706;2023-05-23T00:13:28;8.63;;;5.40;;
3463;SDS011;3551;41.578;24.706;2023-05-23T00:15:57;8.90;;;4.97;;
3463;SDS011;3551;41.578;24.706;2023-05-23T00:18:24;9.50;;;5.40;;
3463;SDS011;3551;41.578;24.706;2023-05-23T00:20:51;7.10;;;5.10;;
3463;SDS011;3551;41.578;24.706;2023-05-23T00:23:18;7.37;;;5.10;;
3463;SDS011;3551;41.578;24.706;2023-05-23T00:25:46;8.53;;;5.20;;
3463;SDS011;3551;41.578;24.706;2023-05-23T00:28:17;6.77;;;5.00;;
3463;SDS011;3551;41.578;24.706;2023-05-23T00:30:45;10.00;;;5.03;;
3463;SDS011;3551;41.578;24.706;2023-05-23T00:33:13;5.80;;;4.27;;
3463;SDS011;3551;41.578;24.706;2023-05-23T00:35:40;8.23;;;4.50;;
3463;SDS011;3551;41.578;24.706;2023-05-23T00:38:07;6.40;;;3.87;;
3463;SDS011;3551;41.578;24.706;2023-05-23T00:40:35;6.50;;;4.53;;
3463;SDS011;3551;41.578;24.706;2023-05-23T00:43:02;5.07;;;3.77;;
3463;SDS011;3551;41.578;24.706;2023-05-23T00:45:29;6.90;;;5.03;;
3463;SDS011;3551;41.578;24.706;2023-05-23T00:47:57;7.03;;;4.77;;
3463;SDS011;3551;41.578;24.706;2023-05-23T00:50:25;5.60;;;4.20;;
3463;SDS011;3551;41.578;24.706;2023-05-23T00:52:54;10.13;;;4.40;;
3463;SDS011;3551;41.578;24.706;2023-05-23T00:55:23;6.27;;;3.70;;
3463;SDS011;3551;41.578;24.706;2023-05-23T00:57:51;6.77;;;4.00;;
3463;SDS011;3551;41.578;24.706;2023-05-23T01:00:19;15.43;;;4.80;;
3463;SDS011;3551;41.578;24.706;2023-05-23T01:02:47;6.07;;;4.57;;
3463;SDS011;3551;41.578;24.706;2023-05-23T01:05:18;5.73;;;3.97;;
3463;SDS011;3551;41.578;24.706;2023-05-23T01:07:49;9.37;;;5.07;;
3463;SDS011;3551;41.578;24.706;2023-05-23T01:10:18;6.43;;;4.70;;
3463;SDS011;3551;41.578;24.706;2023-05-23T01:12:55;7.17;;;3.77;;
3463;SDS011;3551;41.578;24.706;2023-05-23T04:24:42;14.53;;;8.90;;
3463;SDS011;3551;41.578;24.706;2023-05-23T04:27:10;17.97;;;9.87;;
3463;SDS011;3551;41.578;24.706;2023-05-23T04:29:37;17.97;;;9.33;;
3463;SDS011;3551;41.578;24.706;2023-05-23T04:32:04;20.03;;;11.10;;
3463;SDS011;3551;41.578;24.706;2023-05-23T04:34:32;20.90;;;11.30;;
3463;SDS011;3551;41.578;24.706;2023-05-23T04:36:59;24.70;;;12.10;;
3463;SDS011;3551;41.578;24.706;2023-05-23T04:39:27;22.43;;;12.83;;
3463;SDS011;3551;41.578;24.706;2023-05-23T04:41:55;27.83;;;12.70;;
3463;SDS011;3551;41.578;24.706;2023-05-23T04:44:23;18.60;;;10.67;;
3463;SDS011;3551;41.578;24.706;2023-05-23T04:46:50;24.50;;;12.83;;
3463;SDS011;3551;41.578;24.706;2023-05-23T04:49:17;28.43;;;13.50;;
3463;SDS011;3551;41.578;24.706;2023-05-23T04:51:47;27.23;;;10.70;;
3463;SDS011;3551;41.578;24.706;2023-05-23T04:54:14;16.93;;;9.70;;
3463;SDS011;3551;41.578;24.706;2023-05-23T04:56:41;23.77;;;9.20;;
3463;SDS011;3551;41.578;24.706;2023-05-23T04:59:09;15.17;;;9.20;;
3463;SDS011;3551;41.578;24.706;2023-05-23T05:01:37;23.83;;;9.40;;
3463;SDS011;3551;41.578;24.706;2023-05-23T05:04:05;22.60;;;12.00;;
3463;SDS011;3551;41.578;24.706;2023-05-23T05:06:32;16.83;;;10.00;;
3463;SDS011;3551;41.578;24.706;2023-05-23T05:08:59;25.97;;;12.50;;
3463;SDS011;3551;41.578;24.706;2023-05-23T05:11:26;22.63;;;12.70;;
3463;SDS011;3551;41.578;24.706;2023-05-23T05:13:53;24.37;;;13.60;;
3463;SDS011;3551;41.578;24.706;2023-05-23T05:16:27;20.43;;;14.57;;
3463;SDS011;3551;41.578;24.706;2023-05-23T05:18:54;32.30;;;11.90;;
3463;SDS011;3551;41.578;24.706;2023-05-23T05:21:22;17.47;;;10.60;;
3463;SDS011;3551;41.578;24.706;2023-05-23T05:23:49;37.10;;;12.60;;
3463;SDS011;3551;41.578;24.706;2023-05-23T05:26:16;36.13;;;11.87;;
3463;SDS011;3551;41.578;24.706;2023-05-23T05:28:43;30.80;;;9.77;;
3463;SDS011;3551;41.578;24.706;2023-05-23T05:31:13;7.27;;;5.17;;
3463;SDS011;3551;41.578;24.706;2023-05-23T05:33:42;10.70;;;5.87;;
3463;SDS011;3551;41.578;24.706;2023-05-23T05:36:10;5.53;;;3.40;;
3463;SDS011;3551;41.578;24.706;2023-05-23T05:38:37;8.40;;;6.40;;
3463;SDS011;3551;41.578;24.706;2023-05-23T05:41:04;10.50;;;6.03;;
3463;SDS011;3551;41.578;24.706;2023-05-23T05:43:31;11.00;;;5.90;;
3463;SDS011;3551;41.578;24.706;2023-05-23T05:45:58;11.13;;;5.20;;
3463;SDS011;3551;41.578;24.706;2023-05-23T05:48:25;12.53;;;6.13;;
3463;SDS011;3551;41.578;24.706;2023-05-23T05:50:53;7.20;;;3.80;;
3463;SDS011;3551;41.578;24.706;2023-05-23T05:53:20;5.73;;;4.07;;
3463;SDS011;3551;41.578;24.706;2023-05-23T05:55:47;9.67;;;3.90;;
3463;SDS011;3551;41.578;24.706;2023-05-23T05:58:14;9.00;;;4.63;;
3463;SDS011;3551;41.578;24.706;2023-05-23T06:00:41;8.67;;;4.53;;
3463;SDS011;3551;41.578;24.706;2023-05-23T06:03:13;6.50;;;5.10;;
3463;SDS011;3551;41.578;24.706;2023-05-23T06:05:40;10.63;;;5.07;;
3463;SDS011;3551;41.578;24.706;2023-05-23T06:08:09;14.33;;;5.10;;
3463;SDS011;3551;41.578;24.706;2023-05-23T06:10:36;9.93;;;5.57;;
3463;SDS011;3551;41.578;24.706;2023-05-23T06:13:04;9.50;;;5.63;;
3463;SDS011;3551;41.578;24.706;2023-05-23T06:15:31;18.83;;;10.37;;
3463;SDS011;3551;41.578;24.706;2023-05-23T06:18:04;8.03;;;5.77;;
3463;SDS011;3551;41.578;24.706;2023-05-23T06:20:31;17.17;;;8.83;;
3463;SDS011;3551;41.578;24.706;2023-05-23T06:22:58;7.83;;;4.97;;
3463;SDS011;3551;41.578;24.706;2023-05-23T06:25:27;8.23;;;5.83;;
3463;SDS011;3551;41.578;24.706;2023-05-23T06:27:54;6.83;;;4.93;;
3463;SDS011;3551;41.578;24.706;2023-05-23T06:30:21;12.40;;;5.00;;
3463;SDS011;3551;41.578;24.706;2023-05-23T06:32:48;12.33;;;5.00;;
3463;SDS011;3551;41.578;24.706;2023-05-23T06:35:15;5.00;;;4.00;;
3463;SDS011;3551;41.578;24.706;2023-05-23T06:37:42;11.43;;;5.47;;
3463;SDS011;3551;41.578;24.706;2023-05-23T06:40:10;7.83;;;5.23;;
3463;SDS011;3551;41.578;24.706;2023-05-23T06:42:39;8.53;;;5.00;;
3463;SDS011;3551;41.578;24.706;2023-05-23T06:45:07;6.30;;;4.50;;
3463;SDS011;3551;41.578;24.706;2023-05-23T06:47:34;9.63;;;4.47;;
3463;SDS011;3551;41.578;24.706;2023-05-23T06:50:01;6.70;;;4.73;;
3463;SDS011;3551;41.578;24.706;2023-05-23T06:52:28;7.60;;;5.17;;
3463;SDS011;3551;41.578;24.706;2023-05-23T06:54:55;7.23;;;4.93;;
3463;SDS011;3551;41.578;24.706;2023-05-23T06:57:22;13.97;;;4.20;;
3463;SDS011;3551;41.578;24.706;2023-05-23T06:59:50;6.57;;;4.33;;
3463;SDS011;3551;41.578;24.706;2023-05-23T07:02:17;9.50;;;4.83;;
3463;SDS011;3551;41.578;24.706;2023-05-23T07:04:47;5.40;;;4.23;;
3463;SDS011;3551;41.578;24.706;2023-05-23T07:07:14;6.10;;;3.70;;
3463;SDS011;3551;41.578;24.706;2023-05-23T07:09:43;5.83;;;4.13;;
3463;SDS011;3551;41.578;24.706;2023-05-23T07:12:12;6.83;;;3.90;;
3463;SDS011;3551;41.578;24.706;2023-05-23T07:14:42;6.17;;;3.77;;
3463;SDS011;3551;41.578;24.706;2023-05-23T07:17:10;5.40;;;4.30;;
3463;SDS011;3551;41.578;24.706;2023-05-23T07:19:37;16.27;;;8.70;;
3463;SDS011;3551;41.578;24.706;2023-05-23T07:22:08;8.40;;;5.10;;
3463;SDS011;3551;41.578;24.706;2023-05-23T07:24:36;6.23;;;3.97;;
3463;SDS011;3551;41.578;24.706;2023-05-23T07:27:06;5.20;;;3.90;;
3463;SDS011;3551;41.578;24.706;2023-05-23T07:29:39;9.83;;;4.97;;
3463;SDS011;3551;41.578;24.706;2023-05-23T07:32:11;8.40;;;4.80;;
3463;SDS011;3551;41.578;24.706;2023-05-23T07:34:41;7.23;;;4.33;;
3463;SDS011;3551;41.578;24.706;2023-05-23T07:37:09;7.70;;;3.97;;
3463;SDS011;3551;41.578;24.706;2023-05-23T07:39:40;7.00;;;4.40;;
3463;SDS011;3551;41.578;24.706;2023-05-23T07:42:07;7.00;;;4.43;;
3463;SDS011;3551;41.578;24.706;2023-05-23T07:44:35;6.07;;;3.80;;
3463;SDS011;3551;41.578;24.706;2023-05-23T07:47:05;6.97;;;4.03;;
3463;SDS011;3551;41.578;24.706;2023-05-23T07:49:35;5.77;;;4.13;;
3463;SDS011;3551;41.578;24.706;2023-05-23T07:52:05;6.83;;;4.67;;
3463;SDS011;3551;41.578;24.706;2023-05-23T07:54:35;5.97;;;4.10;;
3463;SDS011;3551;41.578;24.706;2023-05-23T07:57:05;11.50;;;5.10;;
3463;SDS011;3551;41.578;24.706;2023-05-23T07:59:37;6.10;;;4.37;;
3463;SDS011;3551;41.578;24.706;2023-05-23T08:02:10;5.70;;;4.13;;
3463;SDS011;3551;41.578;24.706;2023-05-23T08:04:41;7.63;;;4.37;;
3463;SDS011;3551;41.578;24.706;2023-05-23T08:07:14;19.43;;;6.90;;
3463;SDS011;3551;41.578;24.706;2023-05-23T08:09:44;7.20;;;4.77;;
3463;SDS011;3551;41.578;24.706;2023-05-23T08:12:17;5.93;;;4.73;;
3463;SDS011;3551;41.578;24.706;2023-05-23T08:14:47;6.50;;;4.23;;
3463;SDS011;3551;41.578;24.706;2023-05-23T08:17:14;5.57;;;4.40;;
3463;SDS011;3551;41.578;24.706;2023-05-23T08:19:43;5.63;;;3.20;;
3463;SDS011;3551;41.578;24.706;2023-05-23T08:22:10;6.67;;;3.90;;
3463;SDS011;3551;41.578;24.706;2023-05-23T08:24:42;7.03;;;3.37;;
3463;SDS011;3551;41.578;24.706;2023-05-23T08:27:12;5.27;;;3.40;;
3463;SDS011;3551;41.578;24.706;2023-05-23T08:29:42;8.43;;;3.80;;
3463;SDS011;3551;41.578;24.706;2023-05-23T08:32:13;4.33;;;3.10;;
3463;SDS011;3551;41.578;24.706;2023-05-23T08:34:40;11.53;;;3.80;;
3463;SDS011;3551;41.578;24.706;2023-05-23T08:37:09;4.90;;;3.67;;
3463;SDS011;3551;41.578;24.706;2023-05-23T08:39:36;13.40;;;3.77;;
3463;SDS011;3551;41.578;24.706;2023-05-23T08:42:03;6.00;;;4.07;;
3463;SDS011;3551;41.578;24.706;2023-05-23T08:44:31;7.60;;;3.90;;
3463;SDS011;3551;41.578;24.706;2023-05-23T08:47:02;12.63;;;3.63;;
3463;SDS011;3551;41.578;24.706;2023-05-23T08:49:30;7.30;;;3.90;;
3463;SDS011;3551;41.578;24.706;2023-05-23T08:52:00;7.40;;;5.30;;
3463;SDS011;3551;41.578;24.706;2023-05-23T08:54:37;5.70;;;3.63;;
3463;SDS011;3551;41.578;24.706;2023-05-23T08:57:19;10.37;;;3.67;;
3463;SDS011;3551;41.578;24.706;2023-05-23T08:59:48;4.03;;;3.53;;
3463;SDS011;3551;41.578;24.706;2023-05-23T09:02:17;12.83;;;3.90;;
3463;SDS011;3551;41.578;24.706;2023-05-23T09:04:50;5.70;;;3.70;;
3463;SDS011;3551;41.578;24.706;2023-05-23T09:07:28;7.73;;;4.07;;
3463;SDS011;3551;41.578;24.706;2023-05-23T09:09:55;4.90;;;3.13;;
3463;SDS011;3551;41.578;24.706;2023-05-23T09:12:22;5.27;;;4.00;;
3463;SDS011;3551;41.578;24.706;2023-05-23T09:14:52;6.10;;;3.50;;
3463;SDS011;3551;41.578;24.706;2023-05-23T09:17:20;8.77;;;3.90;;
3463;SDS011;3551;41.578;24.706;2023-05-23T09:19:51;6.27;;;3.90;;
3463;SDS011;3551;41.578;24.706;2023-05-23T09:22:24;6.90;;;3.53;;
3463;SDS011;3551;41.578;24.706;2023-05-23T09:24:55;5.37;;;3.40;;
3463;SDS011;3551;41.578;24.706;2023-05-23T09:27:23;4.80;;;3.33;;
3463;SDS011;3551;41.578;24.706;2023-05-23T09:29:51;8.27;;;4.00;;
3463;SDS011;3551;41.578;24.706;2023-05-23T09:32:22;6.60;;;3.40;;
3463;SDS011;3551;41.578;24.706;2023-05-23T09:34:55;9.77;;;3.73;;
3463;SDS011;3551;41.578;24.706;2023-05-23T09:37:24;4.27;;;3.27;;
3463;SDS011;3551;41.578;24.706;2023-05-23T09:39:57;5.27;;;3.77;;
3463;SDS011;3551;41.578;24.706;2023-05-23T09:42:25;6.53;;;4.00;;
3463;SDS011;3551;41.578;24.706;2023-05-23T09:44:58;6.67;;;3.60;;
3463;SDS011;3551;41.578;24.706;2023-05-23T09:47:25;13.47;;;4.23;;
3463;SDS011;3551;41.578;24.706;2023-05-23T09:49:54;7.47;;;3.73;;
3463;SDS011;3551;41.578;24.706;2023-05-23T09:52:21;6.17;;;3.23;;
3463;SDS011;3551;41.578;24.706;2023-05-23T09:54:48;5.63;;;3.80;;
3463;SDS011;3551;41.578;24.706;2023-05-23T09:57:16;4.70;;;3.80;;
3463;SDS011;3551;41.578;24.706;2023-05-23T09:59:49;5.03;;;3.73;;
3463;SDS011;3551;41.578;24.706;2023-05-23T10:02:22;5.43;;;3.40;;
3463;SDS011;3551;41.578;24.706;2023-05-23T10:05:07;7.60;;;4.50;;
3463;SDS011;3551;41.578;24.706;2023-05-23T10:07:39;4.63;;;3.60;;
3463;SDS011;3551;41.578;24.706;2023-05-23T10:10:08;9.23;;;2.90;;
3463;SDS011;3551;41.578;24.706;2023-05-23T10:12:42;7.00;;;4.03;;
3463;SDS011;3551;41.578;24.706;2023-05-23T10:15:14;11.30;;;3.07;;
3463;SDS011;3551;41.578;24.706;2023-05-23T10:20:39;8.07;;;3.30;;
3463;SDS011;3551;41.578;24.706;2023-05-23T10:25:59;4.40;;;2.97;;
3463;SDS011;3551;41.578;24.706;2023-05-23T10:28:31;4.93;;;3.70;;
3463;SDS011;3551;41.578;24.706;2023-05-23T10:30:58;7.40;;;3.73;;
3463;SDS011;3551;41.578;24.706;2023-05-23T10:33:26;5.83;;;3.37;;
3463;SDS011;3551;41.578;24.706;2023-05-23T10:35:56;3.43;;;2.87;;
3463;SDS011;3551;41.578;24.706;2023-05-23T10:38:33;4.90;;;3.50;;
3463;SDS011;3551;41.578;24.706;2023-05-23T10:41:08;4.20;;;3.40;;
3463;SDS011;3551;41.578;24.706;2023-05-23T10:43:43;5.90;;;3.67;;
3463;SDS011;3551;41.578;24.706;2023-05-23T10:46:14;8.70;;;4.17;;
3463;SDS011;3551;41.578;24.706;2023-05-23T10:48:45;7.63;;;4.00;;
3463;SDS011;3551;41.578;24.706;2023-05-23T10:51:13;6.73;;;4.37;;
3463;SDS011;3551;41.578;24.706;2023-05-23T10:53:41;7.10;;;4.60;;
3463;SDS011;3551;41.578;24.706;2023-05-23T10:56:10;8.60;;;4.40;;
3463;SDS011;3551;41.578;24.706;2023-05-23T10:58:45;6.70;;;3.97;;
3463;SDS011;3551;41.578;24.706;2023-05-23T11:01:17;7.63;;;4.20;;
3463;SDS011;3551;41.578;24.706;2023-05-23T11:03:48;18.10;;;4.27;;
3463;SDS011;3551;41.578;24.706;2023-05-23T11:06:27;8.97;;;3.47;;
3463;SDS011;3551;41.578;24.706;2023-05-23T11:09:01;6.33;;;3.63;;
3463;SDS011;3551;41.578;24.706;2023-05-23T11:14:33;10.20;;;3.57;;
3463;SDS011;3551;41.578;24.706;2023-05-23T11:17:15;6.40;;;4.20;;
3463;SDS011;3551;41.578;24.706;2023-05-23T11:22:32;7.47;;;4.10;;
3463;SDS011;3551;41.578;24.706;2023-05-23T11:25:00;8.87;;;4.40;;
3463;SDS011;3551;41.578;24.706;2023-05-23T11:27:32;4.83;;;3.43;;
3463;SDS011;3551;41.578;24.706;2023-05-23T11:30:02;7.73;;;3.97;;
3463;SDS011;3551;41.578;24.706;2023-05-23T11:32:32;5.77;;;3.63;;
3463;SDS011;3551;41.578;24.706;2023-05-23T11:35:00;5.30;;;3.60;;
3463;SDS011;3551;41.578;24.706;2023-05-23T11:37:28;4.30;;;3.27;;
3463;SDS011;3551;41.578;24.706;2023-05-23T11:39:56;5.17;;;3.30;;
3463;SDS011;3551;41.578;24.706;2023-05-23T11:42:23;5.57;;;2.97;;
3463;SDS011;3551;41.578;24.706;2023-05-23T11:44:52;3.73;;;2.90;;
3463;SDS011;3551;41.578;24.706;2023-05-23T11:47:20;6.27;;;3.27;;
3463;SDS011;3551;41.578;24.706;2023-05-23T11:49:48;5.50;;;3.37;;
3463;SDS011;3551;41.578;24.706;2023-05-23T11:52:14;4.80;;;3.53;;
3463;SDS011;3551;41.578;24.706;2023-05-23T11:54:41;5.40;;;3.60;;
3463;SDS011;3551;41.578;24.706;2023-05-23T11:57:11;5.20;;;3.47;;
3463;SDS011;3551;41.578;24.706;2023-05-23T11:59:39;3.60;;;2.90;;
3463;SDS011;3551;41.578;24.706;2023-05-23T12:02:06;4.23;;;3.00;;
3463;SDS011;3551;41.578;24.706;2023-05-23T12:04:36;6.70;;;3.33;;
3463;SDS011;3551;41.578;24.706;2023-05-23T12:07:03;8.23;;;3.83;;
3463;SDS011;3551;41.578;24.706;2023-05-23T12:09:30;6.53;;;3.50;;
3463;SDS011;3551;41.578;24.706;2023-05-23T12:11:57;4.87;;;3.13;;
3463;SDS011;3551;41.578;24.706;2023-05-23T12:14:27;5.50;;;3.60;;
3463;SDS011;3551;41.578;24.706;2023-05-23T12:16:54;4.70;;;3.57;;
3463;SDS011;3551;41.578;24.706;2023-05-23T12:19:22;7.00;;;4.27;;
3463;SDS011;3551;41.578;24.706;2023-05-23T12:21:55;11.03;;;4.33;;
3463;SDS011;3551;41.578;24.706;2023-05-23T12:24:22;7.90;;;4.10;;
3463;SDS011;3551;41.578;24.706;2023-05-23T12:26:57;5.80;;;3.97;;
3463;SDS011;3551;41.578;24.706;2023-05-23T12:29:27;7.03;;;4.20;;
3463;SDS011;3551;41.578;24.706;2023-05-23T12:32:02;21.70;;;4.20;;
3463;SDS011;3551;41.578;24.706;2023-05-23T12:34:39;8.53;;;4.50;;
3463;SDS011;3551;41.578;24.706;2023-05-23T12:37:08;6.30;;;4.13;;
3463;SDS011;3551;41.578;24.706;2023-05-23T12:39:38;6.60;;;4.00;;
3463;SDS011;3551;41.578;24.706;2023-05-23T12:42:14;7.70;;;5.27;;
3463;SDS011;3551;41.578;24.706;2023-05-23T12:44:41;8.70;;;4.13;;
3463;SDS011;3551;41.578;24.706;2023-05-23T12:47:10;8.43;;;3.30;;
3463;SDS011;3551;41.578;24.706;2023-05-23T12:49:37;7.87;;;4.27;;
3463;SDS011;3551;41.578;24.706;2023-05-23T12:52:04;6.23;;;3.57;;
3463;SDS011;3551;41.578;24.706;2023-05-23T12:54:33;5.40;;;4.20;;
3463;SDS011;3551;41.578;24.706;2023-05-23T12:57:00;6.43;;;3.37;;
3463;SDS011;3551;41.578;24.706;2023-05-23T12:59:27;6.00;;;3.23;;
3463;SDS011;3551;41.578;24.706;2023-05-23T13:01:54;3.30;;;2.83;;
3463;SDS011;3551;41.578;24.706;2023-05-23T13:04:23;9.30;;;4.20;;
3463;SDS011;3551;41.578;24.706;2023-05-23T13:06:50;6.40;;;3.90;;
3463;SDS011;3551;41.578;24.706;2023-05-23T13:09:17;6.60;;;4.30;;
3463;SDS011;3551;41.578;24.706;2023-05-23T13:11:48;5.67;;;4.00;;
3463;SDS011;3551;41.578;24.706;2023-05-23T13:14:17;6.10;;;3.57;;
3463;SDS011;3551;41.578;24.706;2023-05-23T13:16:46;4.60;;;3.40;;
3463;SDS011;3551;41.578;24.706;2023-05-23T13:19:13;6.60;;;3.40;;
3463;SDS011;3551;41.578;24.706;2023-05-23T13:21:41;4.40;;;3.40;;
3463;SDS011;3551;41.578;24.706;2023-05-23T13:24:08;5.27;;;4.00;;
3463;SDS011;3551;41.578;24.706;2023-05-23T13:26:37;6.13;;;3.17;;
3463;SDS011;3551;41.578;24.706;2023-05-23T13:29:05;5.13;;;3.20;;
3463;SDS011;3551;41.578;24.706;2023-05-23T13:31:32;4.87;;;3.50;;
3463;SDS011;3551;41.578;24.706;2023-05-23T13:33:58;5.60;;;3.20;;
3463;SDS011;3551;41.578;24.706;2023-05-23T13:36:25;5.23;;;3.37;;
3463;SDS011;3551;41.578;24.706;2023-05-23T13:38:53;4.27;;;3.27;;
3463;SDS011;3551;41.578;24.706;2023-05-23T13:41:20;7.00;;;2.73;;
3463;SDS011;3551;41.578;24.706;2023-05-23T13:43:47;9.50;;;3.60;;
3463;SDS011;3551;41.578;24.706;2023-05-23T13:46:15;5.80;;;2.70;;
3463;SDS011;3551;41.578;24.706;2023-05-23T13:48:42;4.60;;;2.73;;
3463;SDS011;3551;41.578;24.706;2023-05-23T13:51:12;5.43;;;3.00;;
3463;SDS011;3551;41.578;24.706;2023-05-23T13:53:39;7.27;;;2.90;;
3463;SDS011;3551;41.578;24.706;2023-05-23T13:56:06;3.50;;;2.53;;
3463;SDS011;3551;41.578;24.706;2023-05-23T13:58:34;5.70;;;2.73;;
3463;SDS011;3551;41.578;24.706;2023-05-23T14:01:01;5.90;;;3.30;;
3463;SDS011;3551;41.578;24.706;2023-05-23T14:03:30;5.07;;;3.53;;
3463;SDS011;3551;41.578;24.706;2023-05-23T14:05:58;7.37;;;3.73;;
3463;SDS011;3551;41.578;24.706;2023-05-23T14:08:24;11.97;;;3.80;;
3463;SDS011;3551;41.578;24.706;2023-05-23T14:10:52;4.07;;;2.80;;
3463;SDS011;3551;41.578;24.706;2023-05-23T14:13:19;6.03;;;3.03;;
3463;SDS011;3551;41.578;24.706;2023-05-23T14:15:47;5.43;;;2.90;;
3463;SDS011;3551;41.578;24.706;2023-05-23T14:18:15;4.70;;;2.80;;
3463;SDS011;3551;41.578;24.706;2023-05-23T14:20:45;4.07;;;2.80;;
3463;SDS011;3551;41.578;24.706;2023-05-23T14:23:12;7.63;;;3.50;;
3463;SDS011;3551;41.578;24.706;2023-05-23T14:25:38;12.20;;;3.60;;
3463;SDS011;3551;41.578;24.706;2023-05-23T14:28:05;7.80;;;3.80;;
3463;SDS011;3551;41.578;24.706;2023-05-23T14:30:32;7.60;;;3.67;;
3463;SDS011;3551;41.578;24.706;2023-05-23T14:32:59;7.80;;;3.10;;
3463;SDS011;3551;41.578;24.706;2023-05-23T14:35:26;8.50;;;3.23;;
3463;SDS011;3551;41.578;24.706;2023-05-23T14:37:58;5.73;;;3.70;;
3463;SDS011;3551;41.578;24.706;2023-05-23T14:40:25;8.33;;;3.67;;
3463;SDS011;3551;41.578;24.706;2023-05-23T14:42:52;5.23;;;3.07;;
3463;SDS011;3551;41.578;24.706;2023-05-23T14:45:19;7.47;;;4.13;;
3463;SDS011;3551;41.578;24.706;2023-05-23T14:47:46;4.10;;;3.17;;
3463;SDS011;3551;41.578;24.706;2023-05-23T14:50:13;5.43;;;3.23;;
3463;SDS011;3551;41.578;24.706;2023-05-23T14:52:40;7.63;;;3.73;;
3463;SDS011;3551;41.578;24.706;2023-05-23T14:55:08;8.33;;;3.13;;
3463;SDS011;3551;41.578;24.706;2023-05-23T14:57:35;10.17;;;3.20;;
3463;SDS011;3551;41.578;24.706;2023-05-23T15:00:03;8.50;;;4.43;;
3463;SDS011;3551;41.578;24.706;2023-05-23T15:02:32;7.40;;;3.90;;
3463;SDS011;3551;41.578;24.706;2023-05-23T15:04:59;8.53;;;3.10;;
3463;SDS011;3551;41.578;24.706;2023-05-23T15:07:26;5.47;;;3.27;;
3463;SDS011;3551;41.578;24.706;2023-05-23T15:09:52;5.87;;;3.50;;
3463;SDS011;3551;41.578;24.706;2023-05-23T15:12:21;7.67;;;3.83;;
3463;SDS011;3551;41.578;24.706;2023-05-23T15:14:48;9.87;;;3.40;;
3463;SDS011;3551;41.578;24.706;2023-05-23T15:17:15;4.47;;;3.20;;
